Charlevoix, MI

2:13 PM EDT on September 01, 2015 (GMT -0400)
The compound | | Change Station
CLOSE
Current Station
Personal Weather Station
Location: Charlevoix, MI
Elevation: 646 ft
Nearby Weather Stations

Elev 646 ft 45.32 °N, 85.25 °W | Updated 1 minute ago

Scattered Clouds
Scattered Clouds
75.7 °F
Feels Like 75 °F
N
0.0
Wind Variable Wind from SE
Gusts 1.0 mph

Today
High -- | Low -- °F
--% Chance of Precip.
Yesterday
High -- | Low -- °F
Precip. -- in
7:02 AM 8:18 PM
Waning Gibbous, 87% visible
Pressure 30.02 in
Visibility 10.0 miles
Clouds Scattered Clouds 3100 ft
Heat Index 75 °F
Dew Point 73 °F
Humidity 92%
Rainfall 0.52 in
Snow Depth Not available.
UV 6 out of 12
Pollen 11.00 out of 12
Air Quality Not available.
Flu Activity Not available.
METAR KCVX 011755Z AUTO 23004KT 10SM SCT031 29/21 A3002 RMK AO2 T02940213 10294 20185
Pressure 30.02 in
Visibility 10.0 miles
Clouds Scattered Clouds 3100 ft
Heat Index 75 °F
Dew Point 73 °F
Humidity 92%
Rainfall 0.52 in
Snow Depth Not available.
UV 6 out of 12
Pollen 11.00 out of 12
Air Quality Not available.
Flu Activity Not available.
METAR KCVX 011755Z AUTO 23004KT 10SM SCT031 29/21 A3002 RMK AO2 T02940213 10294 20185
Nowcast | as of 2:00 PM EDT on September 1, 2015

At 3 PM...mostly clear. Temperature 80. Southwest winds 9 mph. At 5 PM...mostly clear. Temperature 79. West winds 8 mph. At 7 PM...mostly clear. Temperature 80. Southwest winds 7 mph. At 9 PM...mostly clear. Temperature 77. Southwest winds 6 mph.

×

10-Day Weather Forecast

×

Almanac

Astronomy

Sep. 01, 2015 Rise Set
Actual Time
Civil Twilight
Nautical Twilight
Astronomical Twilight
Moon
Length of Visible Light
Length of Day
Tomorrow will be .
, % of the Moon is Illuminated

Today's Extremes

State Highs State Lows

Community

WunderPhotos

Upload Photos

1,851,592 photos uploaded!

WunderBlogs® & News

Nearby

Air Quality

  Air Quality AQ Index Pollutant
Not available.

Snow Depth

Station Depth Elevation

Earthquake Activity

City Distance Mag. Time & Date
Minimum magnitude displayed is 2.5.

Coastal Water Temperatures

Place Temperature

Stations

Nearby Weather Stations

Station Location Temp. Windchill Dew Point Humidity Wind Precip. Elev Updated Type